sensor_id;sensor_type;location;lat;lon;timestamp;P1;durP1;ratioP1;P2;durP2;ratioP2
51616;SDS011;37697;52.588;13.394;2024-02-04T00:00:50;12.80;;;2.90;;
51616;SDS011;37697;52.588;13.394;2024-02-04T00:06:34;12.70;;;3.50;;
51616;SDS011;37697;52.588;13.394;2024-02-04T00:12:00;10.80;;;2.30;;
51616;SDS011;37697;52.588;13.394;2024-02-04T00:17:25;9.70;;;2.70;;
51616;SDS011;37697;52.588;13.394;2024-02-04T00:22:44;9.70;;;1.80;;
51616;SDS011;37697;52.588;13.394;2024-02-04T00:28:10;10.10;;;1.70;;
51616;SDS011;37697;52.588;13.394;2024-02-04T00:33:35;11.30;;;2.20;;
51616;SDS011;37697;52.588;13.394;2024-02-04T00:39:02;12.10;;;1.80;;
51616;SDS011;37697;52.588;13.394;2024-02-04T00:44:27;11.10;;;1.80;;
51616;SDS011;37697;52.588;13.394;2024-02-04T00:49:35;8.90;;;2.20;;
51616;SDS011;37697;52.588;13.394;2024-02-04T00:55:00;8.60;;;2.20;;
51616;SDS011;37697;52.588;13.394;2024-02-04T01:00:26;10.40;;;2.10;;
51616;SDS011;37697;52.588;13.394;2024-02-04T01:05:52;9.90;;;2.40;;
51616;SDS011;37697;52.588;13.394;2024-02-04T01:11:07;9.80;;;1.80;;
51616;SDS011;37697;52.588;13.394;2024-02-04T01:16:33;8.80;;;2.10;;
51616;SDS011;37697;52.588;13.394;2024-02-04T01:21:59;10.10;;;1.60;;
51616;SDS011;37697;52.588;13.394;2024-02-04T01:27:25;18.30;;;3.00;;
51616;SDS011;37697;52.588;13.394;2024-02-04T01:32:50;9.80;;;2.10;;
51616;SDS011;37697;52.588;13.394;2024-02-04T01:38:16;9.90;;;2.40;;
51616;SDS011;37697;52.588;13.394;2024-02-04T01:43:42;9.00;;;2.00;;
51616;SDS011;37697;52.588;13.394;2024-02-04T01:49:08;12.90;;;2.10;;
51616;SDS011;37697;52.588;13.394;2024-02-04T01:54:34;16.70;;;3.20;;
51616;SDS011;37697;52.588;13.394;2024-02-04T02:00:05;11.60;;;2.10;;
51616;SDS011;37697;52.588;13.394;2024-02-04T02:05:32;14.00;;;3.00;;
51616;SDS011;37697;52.588;13.394;2024-02-04T02:11:04;11.90;;;2.40;;
51616;SDS011;37697;52.588;13.394;2024-02-04T02:16:18;13.50;;;2.00;;
51616;SDS011;37697;52.588;13.394;2024-02-04T02:21:47;12.70;;;2.30;;
51616;SDS011;37697;52.588;13.394;2024-02-04T02:27:20;12.00;;;2.00;;
51616;SDS011;37697;52.588;13.394;2024-02-04T02:32:46;6.50;;;1.50;;
51616;SDS011;37697;52.588;13.394;2024-02-04T02:38:16;10.70;;;2.30;;
51616;SDS011;37697;52.588;13.394;2024-02-04T02:43:49;12.10;;;2.40;;
51616;SDS011;37697;52.588;13.394;2024-02-04T02:49:18;12.50;;;2.50;;
51616;SDS011;37697;52.588;13.394;2024-02-04T02:54:44;9.60;;;2.00;;
51616;SDS011;37697;52.588;13.394;2024-02-04T03:00:11;12.50;;;2.00;;
51616;SDS011;37697;52.588;13.394;2024-02-04T03:05:38;9.80;;;2.10;;
51616;SDS011;37697;52.588;13.394;2024-02-04T03:11:04;12.60;;;1.90;;
51616;SDS011;37697;52.588;13.394;2024-02-04T03:16:29;9.20;;;2.10;;
51616;SDS011;37697;52.588;13.394;2024-02-04T03:21:58;11.20;;;2.80;;
51616;SDS011;37697;52.588;13.394;2024-02-04T03:27:24;12.70;;;2.30;;
51616;SDS011;37697;52.588;13.394;2024-02-04T03:32:49;11.80;;;2.60;;
51616;SDS011;37697;52.588;13.394;2024-02-04T03:38:08;11.60;;;2.50;;
51616;SDS011;37697;52.588;13.394;2024-02-04T03:43:34;8.80;;;3.50;;
51616;SDS011;37697;52.588;13.394;2024-02-04T03:49:01;11.30;;;2.80;;
51616;SDS011;37697;52.588;13.394;2024-02-04T03:54:27;7.60;;;2.20;;
51616;SDS011;37697;52.588;13.394;2024-02-04T03:59:53;13.10;;;2.50;;
51616;SDS011;37697;52.588;13.394;2024-02-04T04:05:19;11.70;;;2.80;;
51616;SDS011;37697;52.588;13.394;2024-02-04T04:10:45;11.30;;;2.60;;
51616;SDS011;37697;52.588;13.394;2024-02-04T04:16:03;7.00;;;2.20;;
51616;SDS011;37697;52.588;13.394;2024-02-04T04:21:23;8.20;;;2.40;;
51616;SDS011;37697;52.588;13.394;2024-02-04T04:26:47;6.90;;;2.30;;
51616;SDS011;37697;52.588;13.394;2024-02-04T04:32:13;11.30;;;2.60;;
51616;SDS011;37697;52.588;13.394;2024-02-04T04:37:39;7.30;;;2.90;;
51616;SDS011;37697;52.588;13.394;2024-02-04T04:42:57;9.90;;;3.30;;
51616;SDS011;37697;52.588;13.394;2024-02-04T04:48:23;8.00;;;2.40;;
51616;SDS011;37697;52.588;13.394;2024-02-04T04:53:50;12.10;;;3.00;;
51616;SDS011;37697;52.588;13.394;2024-02-04T04:59:17;9.50;;;2.20;;
51616;SDS011;37697;52.588;13.394;2024-02-04T05:04:43;8.40;;;2.50;;
51616;SDS011;37697;52.588;13.394;2024-02-04T05:10:09;7.50;;;1.60;;
51616;SDS011;37697;52.588;13.394;2024-02-04T05:15:35;10.10;;;1.90;;
51616;SDS011;37697;52.588;13.394;2024-02-04T05:21:05;10.10;;;1.90;;
51616;SDS011;37697;52.588;13.394;2024-02-04T05:26:30;9.20;;;1.80;;
51616;SDS011;37697;52.588;13.394;2024-02-04T05:31:56;9.90;;;2.20;;
51616;SDS011;37697;52.588;13.394;2024-02-04T05:37:22;9.10;;;2.30;;
51616;SDS011;37697;52.588;13.394;2024-02-04T05:42:47;6.00;;;1.90;;
51616;SDS011;37697;52.588;13.394;2024-02-04T05:48:16;9.90;;;2.00;;
51616;SDS011;37697;52.588;13.394;2024-02-04T05:53:42;9.70;;;1.90;;
51616;SDS011;37697;52.588;13.394;2024-02-04T05:59:08;6.80;;;1.90;;
51616;SDS011;37697;52.588;13.394;2024-02-04T06:04:33;9.40;;;2.30;;
51616;SDS011;37697;52.588;13.394;2024-02-04T06:09:59;7.60;;;1.70;;
51616;SDS011;37697;52.588;13.394;2024-02-04T06:15:25;6.50;;;1.90;;
51616;SDS011;37697;52.588;13.394;2024-02-04T06:20:44;6.70;;;1.70;;
51616;SDS011;37697;52.588;13.394;2024-02-04T06:26:10;9.50;;;1.90;;
51616;SDS011;37697;52.588;13.394;2024-02-04T06:31:35;9.00;;;2.20;;
51616;SDS011;37697;52.588;13.394;2024-02-04T06:37:01;11.20;;;3.20;;
51616;SDS011;37697;52.588;13.394;2024-02-04T06:42:27;6.70;;;2.00;;
51616;SDS011;37697;52.588;13.394;2024-02-04T06:47:53;8.20;;;2.70;;
51616;SDS011;37697;52.588;13.394;2024-02-04T06:53:19;5.90;;;2.70;;
51616;SDS011;37697;52.588;13.394;2024-02-04T06:58:44;6.70;;;2.50;;
51616;SDS011;37697;52.588;13.394;2024-02-04T07:04:10;10.60;;;2.90;;
51616;SDS011;37697;52.588;13.394;2024-02-04T07:09:28;8.30;;;2.90;;
51616;SDS011;37697;52.588;13.394;2024-02-04T07:14:36;6.30;;;3.30;;
51616;SDS011;37697;52.588;13.394;2024-02-04T07:20:03;9.90;;;3.80;;
51616;SDS011;37697;52.588;13.394;2024-02-04T07:25:29;8.60;;;3.40;;
51616;SDS011;37697;52.588;13.394;2024-02-04T07:30:54;8.70;;;3.80;;
51616;SDS011;37697;52.588;13.394;2024-02-04T07:36:20;10.10;;;4.30;;
51616;SDS011;37697;52.588;13.394;2024-02-04T07:41:46;10.70;;;4.60;;
51616;SDS011;37697;52.588;13.394;2024-02-04T07:47:12;11.40;;;4.70;;
51616;SDS011;37697;52.588;13.394;2024-02-04T07:52:37;15.20;;;4.50;;
51616;SDS011;37697;52.588;13.394;2024-02-04T07:58:03;13.00;;;5.60;;
51616;SDS011;37697;52.588;13.394;2024-02-04T08:03:29;11.30;;;3.90;;
51616;SDS011;37697;52.588;13.394;2024-02-04T08:08:55;10.50;;;4.40;;
51616;SDS011;37697;52.588;13.394;2024-02-04T08:14:13;10.60;;;4.00;;
51616;SDS011;37697;52.588;13.394;2024-02-04T08:19:39;9.50;;;4.00;;
51616;SDS011;37697;52.588;13.394;2024-02-04T08:25:06;12.00;;;3.80;;
51616;SDS011;37697;52.588;13.394;2024-02-04T08:30:32;10.70;;;3.70;;
51616;SDS011;37697;52.588;13.394;2024-02-04T08:35:58;12.00;;;4.20;;
51616;SDS011;37697;52.588;13.394;2024-02-04T08:41:24;10.50;;;3.60;;
51616;SDS011;37697;52.588;13.394;2024-02-04T08:46:50;8.20;;;3.00;;
51616;SDS011;37697;52.588;13.394;2024-02-04T08:52:15;10.60;;;3.40;;
51616;SDS011;37697;52.588;13.394;2024-02-04T08:57:41;10.70;;;3.00;;
51616;SDS011;37697;52.588;13.394;2024-02-04T09:03:07;9.50;;;2.50;;
51616;SDS011;37697;52.588;13.394;2024-02-04T09:08:33;6.40;;;2.30;;
51616;SDS011;37697;52.588;13.394;2024-02-04T09:13:59;8.00;;;2.50;;
51616;SDS011;37697;52.588;13.394;2024-02-04T09:19:25;10.70;;;2.60;;
51616;SDS011;37697;52.588;13.394;2024-02-04T09:24:51;7.90;;;2.40;;
51616;SDS011;37697;52.588;13.394;2024-02-04T09:30:17;13.00;;;2.50;;
51616;SDS011;37697;52.588;13.394;2024-02-04T09:35:43;7.90;;;2.70;;
51616;SDS011;37697;52.588;13.394;2024-02-04T09:41:08;8.00;;;2.30;;
51616;SDS011;37697;52.588;13.394;2024-02-04T09:46:34;7.60;;;2.00;;
51616;SDS011;37697;52.588;13.394;2024-02-04T09:52:01;6.90;;;1.80;;
51616;SDS011;37697;52.588;13.394;2024-02-04T09:57:31;9.10;;;1.80;;
51616;SDS011;37697;52.588;13.394;2024-02-04T10:02:59;9.00;;;2.30;;
51616;SDS011;37697;52.588;13.394;2024-02-04T10:08:26;9.00;;;1.70;;
51616;SDS011;37697;52.588;13.394;2024-02-04T10:13:53;7.10;;;2.00;;
51616;SDS011;37697;52.588;13.394;2024-02-04T10:19:21;6.60;;;2.20;;
51616;SDS011;37697;52.588;13.394;2024-02-04T10:24:53;6.80;;;1.50;;
51616;SDS011;37697;52.588;13.394;2024-02-04T10:30:29;6.40;;;1.00;;
51616;SDS011;37697;52.588;13.394;2024-02-04T10:35:54;8.60;;;1.30;;
51616;SDS011;37697;52.588;13.394;2024-02-04T10:41:20;8.10;;;1.50;;
51616;SDS011;37697;52.588;13.394;2024-02-04T10:46:49;7.50;;;1.80;;
51616;SDS011;37697;52.588;13.394;2024-02-04T10:52:15;7.40;;;1.30;;
51616;SDS011;37697;52.588;13.394;2024-02-04T10:57:42;5.00;;;1.60;;
51616;SDS011;37697;52.588;13.394;2024-02-04T11:03:11;3.70;;;1.10;;
51616;SDS011;37697;52.588;13.394;2024-02-04T11:08:21;6.30;;;1.30;;
51616;SDS011;37697;52.588;13.394;2024-02-04T11:13:47;7.80;;;1.30;;
51616;SDS011;37697;52.588;13.394;2024-02-04T11:24:49;4.90;;;1.40;;
51616;SDS011;37697;52.588;13.394;2024-02-04T11:30:23;5.40;;;1.10;;
51616;SDS011;37697;52.588;13.394;2024-02-04T11:35:59;6.30;;;1.50;;
51616;SDS011;37697;52.588;13.394;2024-02-04T11:41:26;10.10;;;1.60;;
51616;SDS011;37697;52.588;13.394;2024-02-04T11:46:52;4.60;;;1.50;;
51616;SDS011;37697;52.588;13.394;2024-02-04T11:52:20;7.80;;;1.30;;
51616;SDS011;37697;52.588;13.394;2024-02-04T11:57:46;4.20;;;1.40;;
51616;SDS011;37697;52.588;13.394;2024-02-04T12:03:12;5.50;;;1.40;;
51616;SDS011;37697;52.588;13.394;2024-02-04T12:08:38;6.00;;;1.20;;
51616;SDS011;37697;52.588;13.394;2024-02-04T12:14:05;6.90;;;1.30;;
51616;SDS011;37697;52.588;13.394;2024-02-04T12:19:31;5.90;;;1.30;;
51616;SDS011;37697;52.588;13.394;2024-02-04T12:24:57;6.90;;;1.70;;
51616;SDS011;37697;52.588;13.394;2024-02-04T12:30:23;6.20;;;1.40;;
51616;SDS011;37697;52.588;13.394;2024-02-04T12:35:50;4.50;;;1.40;;
51616;SDS011;37697;52.588;13.394;2024-02-04T12:41:16;6.80;;;1.70;;
51616;SDS011;37697;52.588;13.394;2024-02-04T12:46:42;6.20;;;1.00;;
51616;SDS011;37697;52.588;13.394;2024-02-04T12:52:09;8.00;;;1.70;;
51616;SDS011;37697;52.588;13.394;2024-02-04T12:57:34;7.00;;;1.50;;
51616;SDS011;37697;52.588;13.394;2024-02-04T13:03:00;6.90;;;1.30;;
51616;SDS011;37697;52.588;13.394;2024-02-04T13:08:12;5.20;;;1.20;;
51616;SDS011;37697;52.588;13.394;2024-02-04T13:13:42;7.50;;;1.40;;
51616;SDS011;37697;52.588;13.394;2024-02-04T13:19:16;5.60;;;1.30;;
51616;SDS011;37697;52.588;13.394;2024-02-04T13:24:43;8.70;;;1.50;;
51616;SDS011;37697;52.588;13.394;2024-02-04T13:30:09;8.00;;;1.50;;
51616;SDS011;37697;52.588;13.394;2024-02-04T13:35:36;6.90;;;1.40;;
51616;SDS011;37697;52.588;13.394;2024-02-04T13:41:02;9.00;;;1.40;;
51616;SDS011;37697;52.588;13.394;2024-02-04T13:46:21;5.60;;;1.40;;
51616;SDS011;37697;52.588;13.394;2024-02-04T13:51:47;7.50;;;1.30;;
51616;SDS011;37697;52.588;13.394;2024-02-04T13:57:13;8.00;;;1.20;;
51616;SDS011;37697;52.588;13.394;2024-02-04T14:02:39;7.00;;;1.50;;
51616;SDS011;37697;52.588;13.394;2024-02-04T14:08:06;9.00;;;1.40;;
51616;SDS011;37697;52.588;13.394;2024-02-04T14:13:32;7.90;;;1.80;;
51616;SDS011;37697;52.588;13.394;2024-02-04T14:18:58;7.20;;;1.40;;
51616;SDS011;37697;52.588;13.394;2024-02-04T14:24:23;7.70;;;1.70;;
51616;SDS011;37697;52.588;13.394;2024-02-04T14:29:42;7.70;;;2.20;;
51616;SDS011;37697;52.588;13.394;2024-02-04T14:35:09;6.90;;;1.30;;
51616;SDS011;37697;52.588;13.394;2024-02-04T14:40:34;8.60;;;1.90;;
51616;SDS011;37697;52.588;13.394;2024-02-04T14:46:01;7.70;;;1.40;;
51616;SDS011;37697;52.588;13.394;2024-02-04T14:51:27;5.00;;;1.50;;
51616;SDS011;37697;52.588;13.394;2024-02-04T14:56:52;8.70;;;1.80;;
51616;SDS011;37697;52.588;13.394;2024-02-04T15:02:18;5.60;;;1.40;;
51616;SDS011;37697;52.588;13.394;2024-02-04T15:07:35;8.50;;;1.60;;
51616;SDS011;37697;52.588;13.394;2024-02-04T15:13:01;5.50;;;1.40;;
51616;SDS011;37697;52.588;13.394;2024-02-04T15:18:28;7.40;;;1.90;;
51616;SDS011;37697;52.588;13.394;2024-02-04T15:23:55;7.40;;;1.60;;
51616;SDS011;37697;52.588;13.394;2024-02-04T15:29:22;6.40;;;1.90;;
51616;SDS011;37697;52.588;13.394;2024-02-04T15:34:48;5.90;;;1.70;;
51616;SDS011;37697;52.588;13.394;2024-02-04T15:40:15;10.30;;;2.30;;
51616;SDS011;37697;52.588;13.394;2024-02-04T15:45:41;9.10;;;1.70;;
51616;SDS011;37697;52.588;13.394;2024-02-04T15:51:08;7.60;;;1.40;;
51616;SDS011;37697;52.588;13.394;2024-02-04T15:56:35;11.40;;;1.70;;
51616;SDS011;37697;52.588;13.394;2024-02-04T16:02:07;8.00;;;1.40;;
51616;SDS011;37697;52.588;13.394;2024-02-04T16:07:33;7.90;;;1.50;;
51616;SDS011;37697;52.588;13.394;2024-02-04T16:12:59;7.10;;;1.50;;
51616;SDS011;37697;52.588;13.394;2024-02-04T16:18:14;6.20;;;2.00;;
51616;SDS011;37697;52.588;13.394;2024-02-04T16:23:41;8.00;;;1.90;;
51616;SDS011;37697;52.588;13.394;2024-02-04T16:29:06;7.90;;;2.10;;
51616;SDS011;37697;52.588;13.394;2024-02-04T16:34:31;5.10;;;1.80;;
51616;SDS011;37697;52.588;13.394;2024-02-04T16:39:58;7.40;;;1.90;;
51616;SDS011;37697;52.588;13.394;2024-02-04T16:45:23;6.80;;;1.40;;
51616;SDS011;37697;52.588;13.394;2024-02-04T16:50:42;9.40;;;1.80;;
51616;SDS011;37697;52.588;13.394;2024-02-04T16:56:08;11.60;;;2.00;;
51616;SDS011;37697;52.588;13.394;2024-02-04T17:01:33;8.70;;;3.10;;
51616;SDS011;37697;52.588;13.394;2024-02-04T17:06:59;6.20;;;1.20;;
51616;SDS011;37697;52.588;13.394;2024-02-04T17:12:26;8.60;;;1.90;;
51616;SDS011;37697;52.588;13.394;2024-02-04T17:17:55;6.50;;;1.80;;
51616;SDS011;37697;52.588;13.394;2024-02-04T17:23:28;8.30;;;1.80;;
51616;SDS011;37697;52.588;13.394;2024-02-04T17:28:58;4.80;;;1.50;;
51616;SDS011;37697;52.588;13.394;2024-02-04T17:34:25;8.30;;;1.50;;
51616;SDS011;37697;52.588;13.394;2024-02-04T17:39:52;4.30;;;1.30;;
51616;SDS011;37697;52.588;13.394;2024-02-04T17:45:18;7.80;;;1.60;;
51616;SDS011;37697;52.588;13.394;2024-02-04T17:50:48;8.00;;;1.70;;
51616;SDS011;37697;52.588;13.394;2024-02-04T17:56:22;5.80;;;1.80;;
51616;SDS011;37697;52.588;13.394;2024-02-04T18:01:48;5.60;;;1.50;;
51616;SDS011;37697;52.588;13.394;2024-02-04T18:07:08;6.00;;;1.50;;
51616;SDS011;37697;52.588;13.394;2024-02-04T18:12:35;4.60;;;1.40;;
51616;SDS011;37697;52.588;13.394;2024-02-04T18:18:04;5.50;;;1.40;;
51616;SDS011;37697;52.588;13.394;2024-02-04T18:23:31;7.90;;;2.10;;
51616;SDS011;37697;52.588;13.394;2024-02-04T18:28:57;5.70;;;1.60;;
51616;SDS011;37697;52.588;13.394;2024-02-04T18:34:25;6.50;;;1.60;;
51616;SDS011;37697;52.588;13.394;2024-02-04T18:39:53;5.30;;;1.30;;
51616;SDS011;37697;52.588;13.394;2024-02-04T18:45:20;9.00;;;2.00;;
51616;SDS011;37697;52.588;13.394;2024-02-04T18:50:48;7.30;;;1.40;;
51616;SDS011;37697;52.588;13.394;2024-02-04T18:56:16;5.40;;;1.50;;
51616;SDS011;37697;52.588;13.394;2024-02-04T19:01:42;5.20;;;1.40;;
51616;SDS011;37697;52.588;13.394;2024-02-04T19:07:09;4.30;;;1.10;;
51616;SDS011;37697;52.588;13.394;2024-02-04T19:12:36;5.40;;;1.70;;
51616;SDS011;37697;52.588;13.394;2024-02-04T19:18:01;4.70;;;1.40;;
51616;SDS011;37697;52.588;13.394;2024-02-04T19:23:31;5.10;;;1.40;;
51616;SDS011;37697;52.588;13.394;2024-02-04T19:28:57;3.00;;;1.10;;
51616;SDS011;37697;52.588;13.394;2024-02-04T19:34:24;3.00;;;1.20;;
51616;SDS011;37697;52.588;13.394;2024-02-04T19:39:53;3.80;;;1.20;;
51616;SDS011;37697;52.588;13.394;2024-02-04T19:45:21;4.40;;;1.30;;
51616;SDS011;37697;52.588;13.394;2024-02-04T19:50:48;2.70;;;1.00;;
51616;SDS011;37697;52.588;13.394;2024-02-04T19:56:18;3.70;;;1.20;;
51616;SDS011;37697;52.588;13.394;2024-02-04T20:01:45;4.10;;;0.90;;
51616;SDS011;37697;52.588;13.394;2024-02-04T20:07:11;4.20;;;1.00;;
51616;SDS011;37697;52.588;13.394;2024-02-04T20:12:39;3.30;;;1.00;;
51616;SDS011;37697;52.588;13.394;2024-02-04T20:18:06;3.80;;;1.20;;
51616;SDS011;37697;52.588;13.394;2024-02-04T20:23:31;4.40;;;1.50;;
51616;SDS011;37697;52.588;13.394;2024-02-04T20:28:57;4.80;;;1.50;;
51616;SDS011;37697;52.588;13.394;2024-02-04T20:34:24;6.60;;;1.70;;
51616;SDS011;37697;52.588;13.394;2024-02-04T20:39:58;5.70;;;1.30;;
51616;SDS011;37697;52.588;13.394;2024-02-04T20:45:25;3.40;;;1.40;;
51616;SDS011;37697;52.588;13.394;2024-02-04T20:50:52;2.80;;;1.10;;
51616;SDS011;37697;52.588;13.394;2024-02-04T20:56:18;3.20;;;1.20;;
51616;SDS011;37697;52.588;13.394;2024-02-04T21:01:38;4.30;;;1.50;;
51616;SDS011;37697;52.588;13.394;2024-02-04T21:07:05;2.30;;;1.10;;
51616;SDS011;37697;52.588;13.394;2024-02-04T21:12:31;4.20;;;1.10;;
51616;SDS011;37697;52.588;13.394;2024-02-04T21:17:57;2.10;;;1.00;;
51616;SDS011;37697;52.588;13.394;2024-02-04T21:23:22;2.10;;;1.20;;
51616;SDS011;37697;52.588;13.394;2024-02-04T21:28:48;1.40;;;0.90;;
51616;SDS011;37697;52.588;13.394;2024-02-04T21:34:14;1.40;;;0.80;;
51616;SDS011;37697;52.588;13.394;2024-02-04T21:39:30;1.30;;;0.90;;
51616;SDS011;37697;52.588;13.394;2024-02-04T21:44:55;1.50;;;0.90;;
51616;SDS011;37697;52.588;13.394;2024-02-04T21:50:21;1.40;;;0.90;;
51616;SDS011;37697;52.588;13.394;2024-02-04T21:55:39;2.10;;;0.90;;
51616;SDS011;37697;52.588;13.394;2024-02-04T22:01:05;3.50;;;1.10;;
51616;SDS011;37697;52.588;13.394;2024-02-04T22:06:31;1.90;;;1.10;;
51616;SDS011;37697;52.588;13.394;2024-02-04T22:11:57;4.30;;;1.20;;
51616;SDS011;37697;52.588;13.394;2024-02-04T22:17:12;3.60;;;1.10;;
51616;SDS011;37697;52.588;13.394;2024-02-04T22:22:38;3.80;;;1.20;;
51616;SDS011;37697;52.588;13.394;2024-02-04T22:28:04;4.00;;;2.10;;
51616;SDS011;37697;52.588;13.394;2024-02-04T22:33:30;2.40;;;1.30;;
51616;SDS011;37697;52.588;13.394;2024-02-04T22:38:56;2.70;;;1.60;;
51616;SDS011;37697;52.588;13.394;2024-02-04T22:44:21;3.70;;;1.50;;
51616;SDS011;37697;52.588;13.394;2024-02-04T22:49:47;5.00;;;2.00;;
51616;SDS011;37697;52.588;13.394;2024-02-04T22:55:13;3.40;;;1.70;;
51616;SDS011;37697;52.588;13.394;2024-02-04T23:00:39;5.70;;;2.70;;
51616;SDS011;37697;52.588;13.394;2024-02-04T23:06:05;2.80;;;1.80;;
51616;SDS011;37697;52.588;13.394;2024-02-04T23:11:31;3.70;;;2.80;;
51616;SDS011;37697;52.588;13.394;2024-02-04T23:16:56;2.90;;;2.10;;
51616;SDS011;37697;52.588;13.394;2024-02-04T23:22:15;2.40;;;1.70;;
51616;SDS011;37697;52.588;13.394;2024-02-04T23:27:40;4.00;;;1.90;;
51616;SDS011;37697;52.588;13.394;2024-02-04T23:33:06;2.80;;;1.80;;
51616;SDS011;37697;52.588;13.394;2024-02-04T23:38:32;4.30;;;1.90;;
51616;SDS011;37697;52.588;13.394;2024-02-04T23:43:58;3.40;;;2.00;;
51616;SDS011;37697;52.588;13.394;2024-02-04T23:49:23;3.30;;;2.40;;
51616;SDS011;37697;52.588;13.394;2024-02-04T23:54:49;3.10;;;2.20;;
